SPTN/TCQ METAR and TAF weather

Enter ICAO airport designator
Station Type Date Time Source
SPTN METAR 2021/02/24 19:00 UTC NOAA

SPTN 241900Z 22009KT 180V240 CAVOK 25/13 Q1011 RMK PP000


Station Type Date Time Source
SPTN Decoded METAR 2021/02/24 19:00 UTC NOAA

Tacna, Peru (SPTN) 18-04S 070-18W 469M
Feb 24, 2021 - 02:00 PM EST / 2021.02.24 1900 UTC
Wind: from the SW (220 degrees) at 10 MPH (9 KT) (direction variable):0
Visibility: greater than 7 mile(s):0
Temperature: 77 F (25 C)
Dew Point: 55 F (13 C)
Relative Humidity: 47%
Pressure (altimeter): 29.85 in. Hg (1011 hPa)
ob: SPTN 241900Z 22009KT 180V240 CAVOK 25/13 Q1011 RMK PP000
cycle: 19

Station Type Date Time Source
SPTN TAF 2021/02/24 18:57 UTC NOAA

TAF SPTN 241943Z 2418/2518 CNL

Example: see airport list